Terminal Aerodrome Forecast
Issued by NWS

Home | Current Version | Previous Version | Text Only | Print | Product List | Glossary On
Versions: 1 2 3 4 5 6 7 8 9 10 11 12 13 14 15 16 17 18 19 20 21 22 23 24 25 26 27 28 29 30 31 32 33 34 35 36 37 38
830
FTAK31 PAFA 140200 AAA
TAFABT
TAF AMD
PABT 140200Z 1402/1424 04012G20KT 2SM -SN BR BKN020 OVC035
     FM140500 05010KT 1 1/2SM -SN BR OVC015
     FM140800 03004KT 1/2SM SN FG OVC015
     FM141700 05003KT 2SM -SHSN BR OVC015=

USA.gov is the U.S. government's official web portal to all federal, state and local government web resources and services.